Time;durP1;ratioP1;P1;durP2;ratioP2;P2;SDS_P1;SDS_P2;PMS_P1;PMS_P2;Temp;Humidity;BMP_temperature;BMP_pressure;BME280_temperature;BME280_humidity;BME280_pressure;Samples;Min_cycle;Max_cycle;Signal;HPM_P1;HPM_P2
2022/07/31 00:00:09;;;;;;;;;3.33;3.33;;;;;23.92;50.14;101505.84;5058043;28;47118;-74
2022/07/31 00:02:35;;;;;;;;;2.00;2.00;;;;;23.87;50.08;101502.19;5060284;28;45362;-74
2022/07/31 00:05:01;;;;;;;;;2.33;2.33;;;;;23.88;50.91;101509.28;5058937;28;45336;-74
2022/07/31 00:07:26;;;;;;;;;2.00;2.00;;;;;23.82;50.67;101503.75;5060033;28;45263;-74
2022/07/31 00:09:52;;;;;;;;;1.67;1.67;;;;;23.75;50.48;101500.38;5060224;28;46295;-74
2022/07/31 00:12:17;;;;;;;;;4.00;2.00;;;;;23.73;51.06;101494.38;5059968;28;45264;-73
2022/07/31 00:14:43;;;;;;;;;1.00;1.00;;;;;23.73;51.31;101488.13;5060508;28;45298;-74
2022/07/31 00:17:08;;;;;;;;;2.33;2.33;;;;;23.67;52.10;101488.03;5086111;27;45295;-74
2022/07/31 00:19:34;;;;;;;;;3.00;3.00;;;;;23.61;51.69;101494.44;5079323;27;48165;-74
2022/07/31 00:21:59;;;;;;;;;2.67;2.33;;;;;23.51;51.63;101480.69;5079847;27;45433;-73
2022/07/31 00:24:25;;;;;;;;;2.00;2.00;;;;;23.45;52.11;101485.22;5079808;28;45239;-74
2022/07/31 00:26:51;;;;;;;;;1.33;1.33;;;;;23.42;52.13;101485.69;5085828;27;47285;-74
2022/07/31 00:29:16;;;;;;;;;1.00;1.00;;;;;23.37;52.12;101488.31;5079820;28;45426;-74
2022/07/31 00:31:41;;;;;;;;;2.00;2.00;;;;;23.30;52.16;101480.28;5093048;27;45306;-74
2022/07/31 00:34:07;;;;;;;;;2.00;2.00;;;;;23.17;52.75;101476.78;5078449;28;46696;-74
2022/07/31 00:36:32;;;;;;;;;3.67;2.33;;;;;23.08;53.28;101473.66;5079499;28;45278;-74
2022/07/31 00:38:57;;;;;;;;;3.00;3.00;;;;;23.07;53.55;101482.03;5079583;28;45313;-74
2022/07/31 00:41:23;;;;;;;;;3.33;3.33;;;;;22.99;53.44;101488.66;5088567;27;45336;-74
2022/07/31 00:43:48;;;;;;;;;2.00;2.00;;;;;22.92;53.95;101486.06;5078301;28;45390;-74
2022/07/31 00:46:14;;;;;;;;;4.33;4.00;;;;;22.87;53.79;101493.28;5079481;28;45460;-74
2022/07/31 00:48:39;;;;;;;;;3.00;3.00;;;;;22.79;54.36;101483.63;5077418;28;47947;-73
2022/07/31 00:51:05;;;;;;;;;2.67;2.67;;;;;22.70;54.40;101486.72;5079653;28;45616;-74
2022/07/31 00:53:30;;;;;;;;;2.00;2.00;;;;;22.68;54.45;101488.00;5079520;28;45307;-74
2022/07/31 00:55:56;;;;;;;;;1.67;1.67;;;;;22.64;54.57;101489.53;5078277;28;46387;-74
2022/07/31 00:58:21;;;;;;;;;2.00;2.00;;;;;22.59;54.96;101487.56;5079417;28;45324;-74
2022/07/31 01:00:47;;;;;;;;;2.67;2.67;;;;;22.50;55.58;101491.63;5079395;28;45354;-74
2022/07/31 01:03:13;;;;;;;;;2.67;2.67;;;;;22.46;55.70;101496.72;5085754;27;45386;-73
2022/07/31 01:05:38;;;;;;;;;2.00;2.00;;;;;22.38;55.93;101486.22;5077936;28;46287;-74
2022/07/31 01:08:04;;;;;;;;;3.00;3.00;;;;;22.39;56.56;101490.59;5078995;28;45370;-74
2022/07/31 01:10:42;;;;;;;;;1.33;1.33;;;;;22.29;56.70;101493.88;5079376;28;45334;-74
2022/07/31 01:13:25;;;;;;;;;2.00;2.00;;;;;22.28;56.79;101503.91;5079330;28;45367;-74
2022/07/31 01:15:52;;;;;;;;;2.00;2.00;;;;;22.19;56.49;101494.47;5093194;27;46048;-74
2022/07/31 01:18:20;;;;;;;;;1.33;1.33;;;;;22.14;56.48;101483.53;5089257;27;48535;-74
2022/07/31 01:20:49;;;;;;;;;3.00;3.00;;;;;22.17;57.21;101494.72;5079142;28;45375;-74
2022/07/31 01:23:40;;;;;;;;;1.67;1.67;;;;;22.12;56.96;101491.88;5079074;28;45327;-74
2022/07/31 01:26:27;;;;;;;;;2.00;2.00;;;;;22.11;57.42;101494.81;5077292;28;45988;-73
2022/07/31 01:29:14;;;;;;;;;3.00;3.00;;;;;22.06;57.08;101493.63;5074407;28;48609;-73
2022/07/31 01:31:48;;;;;;;;;2.00;2.00;;;;;21.99;57.55;101490.22;5080375;28;45227;-74
2022/07/31 01:34:26;;;;;;;;;1.67;1.67;;;;;21.95;57.66;101502.56;5091156;27;45448;-74
2022/07/31 01:37:01;;;;;;;;;2.67;2.67;;;;;21.86;57.65;101493.97;5081180;28;46573;-73
2022/07/31 01:39:32;;;;;;;;;3.00;3.00;;;;;21.79;58.08;101490.56;5082267;28;45836;-74
2022/07/31 01:42:01;;;;;;;;;4.00;3.67;;;;;21.74;57.80;101487.66;5082648;28;45357;-74
2022/07/31 01:44:28;;;;;;;;;2.67;2.33;;;;;21.74;58.46;101493.09;5091049;27;45320;-74
2022/07/31 01:46:57;;;;;;;;;3.67;3.67;;;;;21.70;58.50;101509.78;5080910;28;46603;-74
2022/07/31 01:49:25;;;;;;;;;3.33;3.33;;;;;21.64;58.96;101499.06;5080913;28;47644;-74
2022/07/31 01:51:52;;;;;;;;;2.00;2.00;;;;;21.61;58.94;101497.63;5095789;27;45434;-74
2022/07/31 01:54:19;;;;;;;;;3.00;3.00;;;;;21.61;59.10;101499.53;5080784;28;45297;-74
2022/07/31 01:56:46;;;;;;;;;3.33;3.33;;;;;21.55;59.30;101496.66;5082106;28;45252;-74
2022/07/31 01:59:13;;;;;;;;;2.67;2.67;;;;;21.50;59.34;101499.25;5077525;28;46983;-74
2022/07/31 02:01:39;;;;;;;;;2.00;2.00;;;;;21.43;59.08;101485.00;5076587;28;45231;-73
2022/07/31 02:04:06;;;;;;;;;3.00;3.00;;;;;21.44;59.35;101501.00;5084302;27;45319;-74
2022/07/31 02:06:33;;;;;;;;;5.00;4.00;;;;;21.41;59.63;101503.31;5081950;28;45499;-73
2022/07/31 02:08:59;;;;;;;;;2.67;2.67;;;;;21.36;59.58;101503.16;5081602;28;45251;-73
2022/07/31 02:11:25;;;;;;;;;2.67;2.67;;;;;21.35;59.87;101499.66;5081751;28;45497;-74
2022/07/31 02:13:52;;;;;;;;;3.00;3.00;;;;;21.28;60.25;101493.53;5079016;28;45482;-74
2022/07/31 02:16:19;;;;;;;;;4.67;4.00;;;;;21.27;60.62;101500.81;5075038;27;46043;-73
2022/07/31 02:18:51;;;;;;;;;2.00;2.00;;;;;21.21;60.41;101488.19;5085026;27;48020;-74
2022/07/31 02:21:17;;;;;;;;;3.67;3.67;;;;;21.23;60.85;101498.78;5082022;28;45298;-74
2022/07/31 02:23:42;;;;;;;;;4.00;3.00;;;;;21.16;61.05;101498.88;5081648;28;45573;-74
2022/07/31 02:26:08;;;;;;;;;2.00;1.67;;;;;21.16;61.06;101498.88;5081949;28;45155;-73
2022/07/31 02:28:36;;;;;;;;;4.00;2.33;;;;;21.11;61.20;101498.72;5081866;28;46537;-74
2022/07/31 02:31:05;;;;;;;;;4.00;4.00;;;;;21.08;60.95;101494.59;5077497;28;45362;-73
2022/07/31 02:33:31;;;;;;;;;3.00;3.00;;;;;21.08;61.51;101497.31;5084247;27;45424;-74
2022/07/31 02:35:59;;;;;;;;;4.00;3.33;;;;;21.02;61.33;101490.94;5081543;28;45274;-73
2022/07/31 02:38:26;;;;;;;;;3.33;3.33;;;;;21.05;61.37;101503.16;5075778;28;45366;-73
2022/07/31 02:40:55;;;;;;;;;2.67;2.67;;;;;21.02;61.90;101509.84;5072969;28;45411;-73
2022/07/31 02:43:22;;;;;;;;;4.00;4.00;;;;;20.94;61.91;101496.63;5081487;28;45301;-74
2022/07/31 02:45:47;;;;;;;;;3.00;3.00;;;;;20.88;62.11;101492.91;5086878;27;46431;-73
2022/07/31 02:48:13;;;;;;;;;3.33;3.33;;;;;20.86;62.04;101483.41;5081118;28;45329;-73
2022/07/31 02:50:39;;;;;;;;;3.67;3.67;;;;;20.86;62.03;101488.81;5081579;28;45307;-74
2022/07/31 02:53:05;;;;;;;;;2.67;2.00;;;;;20.79;62.73;101478.91;5079646;28;45363;-73
2022/07/31 02:55:32;;;;;;;;;2.00;2.00;;;;;20.82;62.41;101483.00;5082959;27;47370;-73
2022/07/31 02:57:57;;;;;;;;;2.00;2.00;;;;;20.73;62.47;101474.38;5079804;28;48294;-74
2022/07/31 03:00:25;;;;;;;;;2.67;2.67;;;;;20.76;62.44;101481.22;5081187;28;45444;-73
2022/07/31 03:02:52;;;;;;;;;3.00;3.00;;;;;20.74;62.68;101483.31;5081516;28;45421;-73
2022/07/31 03:05:18;;;;;;;;;3.00;3.00;;;;;20.68;63.03;101475.06;5080995;28;45232;-73
2022/07/31 03:07:44;;;;;;;;;2.00;2.00;;;;;20.64;62.68;101473.03;5080646;28;45355;-73
2022/07/31 03:10:09;;;;;;;;;3.00;2.00;;;;;20.55;63.65;101473.34;5081066;28;45230;-74
2022/07/31 03:12:38;;;;;;;;;4.33;3.00;;;;;20.53;63.85;101472.72;5079709;28;45371;-73
2022/07/31 03:15:10;;;;;;;;;1.00;1.00;;;;;20.54;63.65;101477.09;5081294;28;45274;-74
2022/07/31 03:17:39;;;;;;;;;4.00;3.00;;;;;20.50;63.89;101472.38;5091589;27;45381;-73
2022/07/31 03:20:08;;;;;;;;;2.00;2.00;;;;;20.51;64.16;101480.25;5089083;27;45460;-73
2022/07/31 03:22:34;;;;;;;;;2.00;2.00;;;;;20.51;63.87;101482.09;5079202;28;45420;-73
2022/07/31 03:25:01;;;;;;;;;3.00;2.00;;;;;20.44;64.11;101474.06;5080968;28;45468;-73
2022/07/31 03:27:27;;;;;;;;;2.00;1.00;;;;;20.41;64.33;101475.34;5083346;27;47055;-74
2022/07/31 03:29:53;;;;;;;;;2.00;2.00;;;;;20.39;64.90;101465.81;5075859;28;45435;-73
2022/07/31 03:32:19;;;;;;;;;2.00;2.00;;;;;20.36;64.93;101467.09;5071841;28;45421;-74
2022/07/31 03:34:45;;;;;;;;;2.00;2.00;;;;;20.37;65.13;101471.44;5093381;27;46803;-73
2022/07/31 03:37:10;;;;;;;;;3.00;3.00;;;;;20.31;65.13;101470.47;5085197;27;48247;-74
2022/07/31 03:39:36;;;;;;;;;1.00;1.00;;;;;20.35;65.11;101480.81;5080409;28;45224;-74
2022/07/31 03:42:02;;;;;;;;;2.33;2.33;;;;;20.30;65.23;101474.19;5080946;28;45294;-74
2022/07/31 03:44:28;;;;;;;;;2.00;2.00;;;;;20.27;65.41;101471.97;5089263;27;46233;-73
2022/07/31 03:46:54;;;;;;;;;3.00;2.00;;;;;20.24;65.13;101471.56;5079017;28;47193;-73
2022/07/31 03:49:20;;;;;;;;;1.33;1.33;;;;;20.16;65.78;101462.69;5079165;28;45236;-73
2022/07/31 03:51:45;;;;;;;;;2.67;2.67;;;;;20.17;65.63;101466.22;5093315;27;45236;-73
2022/07/31 03:54:11;;;;;;;;;1.67;1.67;;;;;20.13;66.23;101459.59;5079754;28;45469;-73
2022/07/31 03:56:39;;;;;;;;;5.67;4.33;;;;;20.08;66.00;101456.75;5080230;28;45430;-73
2022/07/31 03:59:04;;;;;;;;;3.00;3.00;;;;;20.07;66.50;101453.22;5079176;28;46071;-74
2022/07/31 04:01:29;;;;;;;;;3.00;3.00;;;;;20.06;66.36;101463.19;5089461;27;45381;-74
2022/07/31 04:03:58;;;;;;;;;3.33;3.33;;;;;20.03;66.73;101452.84;5080038;28;45586;-73
2022/07/31 04:06:24;;;;;;;;;7.33;7.33;;;;;19.99;67.02;101448.91;5087500;27;47353;-74
2022/07/31 04:08:49;;;;;;;;;8.33;7.33;;;;;20.06;66.75;101470.47;5078267;28;45262;-73
2022/07/31 04:11:15;;;;;;;;;8.00;8.00;;;;;20.04;66.61;101464.47;5078918;27;45268;-73
2022/07/31 04:13:40;;;;;;;;;9.00;9.00;;;;;20.05;66.91;101466.09;5080163;28;45394;-73
2022/07/31 04:16:05;;;;;;;;;13.67;11.67;;;;;20.00;67.10;101460.53;5086395;27;48198;-73
2022/07/31 04:18:31;;;;;;;;;12.33;11.67;;;;;19.97;67.17;101466.34;5085694;27;45324;-73
2022/07/31 04:20:56;;;;;;;;;11.00;11.00;;;;;19.96;67.36;101468.22;5080163;28;45480;-73
2022/07/31 04:23:21;;;;;;;;;11.00;10.67;;;;;19.98;67.47;101471.53;5079843;28;45957;-74
2022/07/31 04:25:47;;;;;;;;;9.00;9.00;;;;;19.96;67.67;101468.22;5092795;27;47062;-74
2022/07/31 04:28:12;;;;;;;;;13.67;11.33;;;;;19.94;67.62;101467.63;5079549;28;45393;-73
2022/07/31 04:30:38;;;;;;;;;12.00;10.67;;;;;19.90;67.79;101461.00;5080040;28;45343;-73
2022/07/31 04:33:04;;;;;;;;;11.00;11.00;;;;;19.89;68.74;101464.75;5092115;27;45998;-73
2022/07/31 04:35:29;;;;;;;;;14.67;13.67;;;;;19.85;68.55;101464.38;5074935;28;47386;-74
2022/07/31 04:37:54;;;;;;;;;15.33;13.33;;;;;19.85;68.37;101456.28;5074663;28;45404;-74
2022/07/31 04:40:20;;;;;;;;;13.67;12.67;;;;;19.81;68.95;101455.91;5079945;28;45420;-73
2022/07/31 04:42:46;;;;;;;;;10.33;10.33;;;;;19.87;68.51;101459.56;5079723;28;45353;-74
2022/07/31 04:45:11;;;;;;;;;1.33;0.67;;;;;19.88;68.91;101469.34;5073151;28;47552;-74
2022/07/31 04:47:37;;;;;;;;;10.33;9.33;;;;;19.87;68.99;101467.66;5059399;28;45278;-73
2022/07/31 04:50:03;;;;;;;;;8.00;7.67;;;;;19.88;69.29;101460.41;5076747;28;45422;-74
2022/07/31 04:52:28;;;;;;;;;9.67;9.00;;;;;19.90;69.39;101478.03;5079100;28;46714;-73
2022/07/31 04:54:54;;;;;;;;;6.00;6.00;;;;;19.88;68.70;101476.59;5079302;28;45458;-73
2022/07/31 04:57:19;;;;;;;;;5.00;5.00;;;;;19.91;69.17;101478.84;5079700;28;45328;-74
2022/07/31 04:59:44;;;;;;;;;6.00;4.00;;;;;19.94;68.19;101481.94;5079655;28;45314;-73
2022/07/31 05:02:10;;;;;;;;;7.00;7.00;;;;;19.97;67.99;101479.84;5071910;28;45418;-73
2022/07/31 05:04:35;;;;;;;;;5.00;5.00;;;;;19.97;68.20;101474.44;5071526;28;53105;-73
2022/07/31 05:07:00;;;;;;;;;7.33;7.33;;;;;19.97;68.58;101471.75;5081295;28;45235;-73
2022/07/31 05:09:31;;;;;;;;;5.33;5.33;;;;;19.95;68.27;101461.19;5081736;28;45484;-74
2022/07/31 05:11:57;;;;;;;;;5.00;5.00;;;;;20.00;68.37;101474.00;5082788;28;45272;-73
2022/07/31 05:14:22;;;;;;;;;6.00;6.00;;;;;19.98;68.57;101465.31;5082841;28;45270;-73
2022/07/31 05:16:48;;;;;;;;;7.00;7.00;;;;;20.00;69.05;101472.16;5092993;27;45259;-74
2022/07/31 05:19:15;;;;;;;;;9.00;6.33;;;;;20.01;69.03;101473.81;5078989;27;45427;-74
2022/07/31 05:21:41;;;;;;;;;11.00;8.67;;;;;20.04;69.33;101475.25;5061265;28;46423;-73
2022/07/31 05:24:06;;;;;;;;;9.00;8.00;;;;;20.05;68.97;101466.94;5078525;28;48720;-73
2022/07/31 05:26:31;;;;;;;;;9.00;8.33;;;;;20.11;69.29;101469.81;5085430;27;45419;-73
2022/07/31 05:28:58;;;;;;;;;10.00;9.33;;;;;20.17;69.21;101471.59;5083015;28;45333;-74
2022/07/31 05:31:24;;;;;;;;;17.67;17.67;;;;;20.30;69.27;101476.06;5082564;28;45471;-74
2022/07/31 05:33:50;;;;;;;;;20.33;19.33;;;;;20.42;69.11;101476.16;5072902;28;45448;-74
2022/07/31 05:36:16;;;;;;;;;20.00;19.67;;;;;20.51;69.00;101479.41;5077961;28;45455;-73
2022/07/31 05:38:42;;;;;;;;;17.33;16.33;;;;;20.57;68.93;101470.41;5082574;27;45320;-73
2022/07/31 05:41:08;;;;;;;;;19.33;17.67;;;;;20.71;68.70;101479.19;5082553;28;45445;-74
2022/07/31 05:43:34;;;;;;;;;17.00;16.33;;;;;20.78;68.05;101473.72;5097839;27;47290;-74
2022/07/31 05:45:59;;;;;;;;;16.00;15.67;;;;;20.84;68.10;101474.69;5080997;28;45700;-74
2022/07/31 05:48:24;;;;;;;;;16.00;16.00;;;;;20.92;68.40;101479.84;5081003;28;45940;-73
2022/07/31 05:50:51;;;;;;;;;15.33;14.67;;;;;21.02;67.90;101479.28;5081078;28;46261;-74
2022/07/31 05:53:17;;;;;;;;;17.33;16.67;;;;;21.09;68.01;101476.50;5081737;28;45404;-74
2022/07/31 05:55:44;;;;;;;;;18.33;18.33;;;;;21.14;67.90;101469.38;5082302;28;45347;-74
2022/07/31 05:58:11;;;;;;;;;20.33;19.00;;;;;21.18;67.72;101465.16;5082291;27;45433;-74
2022/07/31 06:00:37;;;;;;;;;19.00;18.67;;;;;21.29;67.92;101481.66;5080688;28;45989;-74
2022/07/31 06:03:03;;;;;;;;;16.33;16.33;;;;;21.30;67.87;101467.06;5082161;28;45503;-74
2022/07/31 06:05:29;;;;;;;;;16.67;16.67;;;;;21.42;67.83;101473.34;5082107;28;45401;-74
2022/07/31 06:07:55;;;;;;;;;18.67;18.67;;;;;21.52;67.48;101478.19;5077136;28;45347;-74
2022/07/31 06:10:20;;;;;;;;;18.67;18.67;;;;;21.61;66.62;101470.59;5076792;28;46486;-74
2022/07/31 06:12:46;;;;;;;;;21.67;20.00;;;;;21.67;66.60;101466.16;5081675;28;46019;-74
2022/07/31 06:15:11;;;;;;;;;17.00;16.67;;;;;21.77;66.23;101473.72;5082049;28;45456;-74
2022/07/31 06:17:37;;;;;;;;;16.33;15.67;;;;;21.86;65.98;101476.91;5092440;27;45401;-74
2022/07/31 06:20:03;;;;;;;;;17.00;17.00;;;;;21.97;66.02;101483.41;5089550;27;47471;-74
2022/07/31 06:22:28;;;;;;;;;16.67;16.33;;;;;22.00;66.20;101474.81;5081099;27;46836;-74
2022/07/31 06:24:54;;;;;;;;;13.33;13.00;;;;;22.06;65.72;101472.00;5071373;28;46072;-74
2022/07/31 06:27:21;;;;;;;;;13.67;13.00;;;;;22.12;65.97;101477.53;5064155;28;45532;-73
2022/07/31 06:29:46;;;;;;;;;11.67;11.67;;;;;22.12;65.48;101472.94;5061797;28;45454;-74
2022/07/31 06:32:11;;;;;;;;;11.67;11.33;;;;;22.14;65.57;101464.56;5061451;28;45430;-73
2022/07/31 06:34:37;;;;;;;;;10.00;10.00;;;;;22.08;65.09;101474.47;5077940;28;46223;-73
2022/07/31 06:37:02;;;;;;;;;7.67;7.67;;;;;22.01;65.37;101466.47;5081827;28;45642;-73
2022/07/31 06:39:27;;;;;;;;;10.33;9.00;;;;;21.97;65.86;101473.41;5092655;27;46379;-73
2022/07/31 06:41:53;;;;;;;;;9.00;9.00;;;;;21.97;66.07;101473.41;5081722;28;45581;-73
2022/07/31 06:44:19;;;;;;;;;7.00;7.00;;;;;22.03;65.12;101483.28;5081670;28;45414;-73
2022/07/31 06:46:45;;;;;;;;;8.67;8.67;;;;;22.06;65.19;101482.81;5081409;28;45233;-73
2022/07/31 06:49:11;;;;;;;;;9.67;8.67;;;;;22.15;65.41;101493.31;5088668;27;47638;-73
2022/07/31 06:51:37;;;;;;;;;9.00;7.33;;;;;22.17;65.23;101486.59;5081143;28;46375;-73
2022/07/31 06:54:06;;;;;;;;;8.00;8.00;;;;;22.16;65.44;101489.53;5080967;28;45392;-72
2022/07/31 06:56:32;;;;;;;;;10.33;8.33;;;;;22.16;65.49;101486.81;5080051;28;45461;-73
2022/07/31 06:58:58;;;;;;;;;9.67;9.67;;;;;22.13;64.63;101485.44;5080047;28;46940;-73
2022/07/31 07:01:23;;;;;;;;;8.33;8.33;;;;;22.18;65.07;101484.72;5081146;28;45294;-74
2022/07/31 07:03:48;;;;;;;;;7.33;7.33;;;;;22.22;65.29;101471.53;5083000;27;45670;-73
2022/07/31 07:06:14;;;;;;;;;8.00;8.00;;;;;22.28;65.12;101471.41;5081558;27;45310;-73
2022/07/31 07:08:40;;;;;;;;;5.00;5.00;;;;;22.42;64.91;101477.41;5079235;28;46242;-73
2022/07/31 07:11:05;;;;;;;;;8.00;8.00;;;;;22.55;64.92;101470.09;5075861;28;45463;-73
2022/07/31 07:13:30;;;;;;;;;7.67;7.00;;;;;22.63;63.95;101468.94;5071325;28;45339;-73
2022/07/31 07:15:56;;;;;;;;;10.33;10.33;;;;;22.72;64.04;101467.53;5082587;27;45342;-73
2022/07/31 07:18:21;;;;;;;;;10.67;9.33;;;;;22.82;64.34;101483.16;5080546;27;47446;-73
2022/07/31 07:20:47;;;;;;;;;10.67;10.67;;;;;22.91;63.89;101497.16;5080525;28;45524;-75
2022/07/31 07:23:13;;;;;;;;;8.00;8.00;;;;;22.97;63.62;101488.06;5080286;28;45388;-74
2022/07/31 07:25:38;;;;;;;;;9.00;9.00;;;;;23.02;63.70;101490.88;5076262;28;45452;-74
2022/07/31 07:28:03;;;;;;;;;7.67;7.67;;;;;23.04;62.55;101494.19;5075683;28;45914;-74
2022/07/31 07:30:29;;;;;;;;;9.33;8.00;;;;;23.03;63.26;101480.84;5074304;28;47148;-74
2022/07/31 07:32:54;;;;;;;;;7.33;7.00;;;;;23.13;63.37;101494.63;5077689;28;45479;-74
2022/07/31 07:35:20;;;;;;;;;8.67;8.67;;;;;23.22;62.84;101489.63;5076384;28;45302;-75
2022/07/31 07:37:46;;;;;;;;;9.00;9.00;;;;;23.23;63.06;101490.47;5076083;28;45408;-73
2022/07/31 07:40:12;;;;;;;;;9.67;9.00;;;;;23.32;62.10;101481.69;5060782;28;47516;-76
2022/07/31 07:42:37;;;;;;;;;9.33;9.33;;;;;23.38;62.59;101470.97;5061018;28;46090;-75
2022/07/31 07:45:03;;;;;;;;;7.67;7.67;;;;;23.41;62.66;101476.72;5078920;28;45563;-75
2022/07/31 07:47:28;;;;;;;;;9.00;9.00;;;;;23.50;62.77;101490.75;5077382;28;46336;-74
2022/07/31 07:49:53;;;;;;;;;8.67;8.67;;;;;23.57;61.93;101488.69;5068349;28;48209;-74
2022/07/31 07:52:19;;;;;;;;;8.33;8.33;;;;;23.58;61.47;101490.34;5075799;27;47105;-75
2022/07/31 07:54:44;;;;;;;;;4.33;4.33;;;;;23.52;60.97;101482.34;5060915;28;45377;-74
2022/07/31 07:57:20;;;;;;;;;10.00;9.00;;;;;23.47;61.18;101493.94;5060844;27;45308;-74
2022/07/31 07:59:47;;;;;;;;;9.33;9.33;;;;;23.47;60.92;101493.09;5066437;28;45275;-74
2022/07/31 08:02:12;;;;;;;;;9.00;9.00;;;;;23.57;60.97;101493.28;5077340;28;45351;-74
2022/07/31 08:04:38;;;;;;;;;8.67;8.67;;;;;23.64;60.87;101493.94;5078336;28;45523;-74
2022/07/31 08:07:03;;;;;;;;;8.67;8.67;;;;;23.69;60.40;101498.66;5073389;28;47479;-74
2022/07/31 08:09:29;;;;;;;;;8.00;8.00;;;;;23.69;60.32;101491.34;5069631;28;48830;-74
2022/07/31 08:11:55;;;;;;;;;7.33;7.00;;;;;23.76;59.46;101483.03;5079068;28;45398;-75
2022/07/31 08:14:20;;;;;;;;;7.00;7.00;;;;;23.87;60.03;101491.34;5074181;28;45358;-74
2022/07/31 08:16:45;;;;;;;;;7.33;7.33;;;;;23.95;59.64;101496.38;5074221;27;46278;-75
2022/07/31 08:19:12;;;;;;;;;8.00;8.00;;;;;23.94;59.14;101484.69;5082368;27;46516;-74
2022/07/31 08:21:38;;;;;;;;;7.00;7.00;;;;;23.99;58.75;101491.25;5077410;28;45345;-74
2022/07/31 08:24:04;;;;;;;;;11.00;9.00;;;;;23.92;58.81;101497.69;5089725;27;45596;-74
2022/07/31 08:27:22;;;;;;;;;7.00;7.00;;;;;23.88;58.61;101507.38;5067820;28;47073;-74
2022/07/31 08:29:14;;;;;;;;;6.67;6.67;;;;;23.88;58.76;101510.09;5077781;28;45779;-74
2022/07/31 08:31:40;;;;;;;;;9.00;9.00;;;;;23.85;58.51;101505.16;5076479;28;45378;-74
2022/07/31 08:34:06;;;;;;;;;9.00;9.00;;;;;23.87;58.62;101499.47;5078112;28;45417;-74
2022/07/31 08:36:31;;;;;;;;;9.33;9.33;;;;;24.00;58.13;101492.91;5079348;27;45509;-74
2022/07/31 08:38:57;;;;;;;;;9.33;9.33;;;;;24.12;58.30;101490.13;5084565;27;48000;-74
2022/07/31 08:41:22;;;;;;;;;7.00;7.00;;;;;24.22;57.73;101487.59;5079432;28;45451;-74
2022/07/31 08:43:48;;;;;;;;;9.67;9.00;;;;;24.31;57.18;101486.09;5078427;28;45436;-73
2022/07/31 08:46:14;;;;;;;;;11.67;11.67;;;;;24.44;57.20;101486.81;5078242;28;46465;-75
2022/07/31 08:48:42;;;;;;;;;8.33;8.00;;;;;24.60;57.09;101493.25;5079184;28;46699;-75
2022/07/31 08:51:10;;;;;;;;;7.33;7.33;;;;;24.62;56.37;101484.84;5077767;28;45331;-75
2022/07/31 08:53:38;;;;;;;;;9.33;9.33;;;;;24.68;56.16;101489.28;5074625;28;45292;-75
2022/07/31 08:56:04;;;;;;;;;6.67;6.33;;;;;24.77;56.14;101484.22;5073772;28;46365;-75
2022/07/31 08:58:30;;;;;;;;;8.00;8.00;;;;;24.64;55.88;101488.16;5082144;27;46402;-75
2022/07/31 09:00:56;;;;;;;;;11.33;9.33;;;;;24.66;55.85;101503.13;5078019;27;45475;-75
2022/07/31 09:03:21;;;;;;;;;8.33;8.33;;;;;24.58;55.21;101492.72;5075785;28;45595;-76
2022/07/31 09:05:47;;;;;;;;;10.00;10.00;;;;;24.56;55.36;101489.41;5057389;28;45805;-76
2022/07/31 09:08:12;;;;;;;;;9.00;9.00;;;;;24.59;55.23;101495.16;5066865;28;46746;-75
2022/07/31 09:10:38;;;;;;;;;10.33;10.33;;;;;24.52;55.22;101491.00;5076204;28;45603;-75
2022/07/31 09:13:12;;;;;;;;;12.00;10.33;;;;;24.53;54.93;101498.06;5078651;27;45413;-76
2022/07/31 09:15:37;;;;;;;;;8.33;8.33;;;;;24.60;54.84;101501.41;5078858;27;45748;-76
2022/07/31 09:18:03;;;;;;;;;10.67;10.67;;;;;24.71;54.87;101486.91;5082845;27;45433;-75
2022/07/31 09:20:29;;;;;;;;;8.33;8.33;;;;;24.86;54.67;101490.88;5077690;27;45169;-74
2022/07/31 09:23:05;;;;;;;;;10.00;9.33;;;;;24.98;54.78;101489.94;5078013;28;45322;-76
2022/07/31 09:25:31;;;;;;;;;9.33;8.33;;;;;25.06;54.68;101490.34;5077506;28;46250;-76
2022/07/31 09:28:01;;;;;;;;;10.00;10.00;;;;;25.06;54.61;101489.50;5073623;28;45279;-75
2022/07/31 09:30:26;;;;;;;;;8.67;8.67;;;;;24.92;54.08;101495.34;5076038;28;45564;-75
2022/07/31 09:32:52;;;;;;;;;8.67;8.67;;;;;24.87;53.86;101489.81;5079091;28;45361;-75
2022/07/31 09:35:18;;;;;;;;;9.67;9.67;;;;;24.82;53.91;101485.13;5081665;27;46082;-75
2022/07/31 09:37:46;;;;;;;;;8.67;8.67;;;;;24.89;54.46;101475.97;5066867;28;45323;-75
2022/07/31 09:40:12;;;;;;;;;6.00;6.00;;;;;25.01;53.95;101484.00;5069395;28;45567;-75
2022/07/31 09:42:42;;;;;;;;;11.00;11.00;;;;;25.01;53.51;101494.88;5081743;27;45401;-76
2022/07/31 09:45:17;;;;;;;;;9.33;9.33;;;;;24.99;53.79;101480.72;5077282;28;45761;-75
2022/07/31 09:47:43;;;;;;;;;10.00;9.67;;;;;25.06;53.99;101479.47;5083823;27;47246;-75
2022/07/31 09:50:08;;;;;;;;;9.33;8.67;;;;;25.08;53.89;101477.28;5078342;28;45330;-75
2022/07/31 09:52:34;;;;;;;;;11.00;11.00;;;;;25.19;53.66;101480.13;5079281;28;45398;-75
2022/07/31 09:55:08;;;;;;;;;11.67;10.00;;;;;25.26;53.76;101491.63;5081989;28;45395;-75
2022/07/31 09:57:36;;;;;;;;;12.00;11.00;;;;;25.33;53.71;101494.16;5081601;28;45783;-75
2022/07/31 10:00:04;;;;;;;;;12.00;10.67;;;;;25.38;53.39;101499.63;5071506;28;45582;-75
2022/07/31 10:02:30;;;;;;;;;11.33;11.33;;;;;25.41;53.17;101484.72;5077619;28;45315;-75
2022/07/31 10:04:57;;;;;;;;;10.33;9.00;;;;;25.40;52.51;101477.63;5093344;27;46483;-74
2022/07/31 10:07:26;;;;;;;;;10.33;10.33;;;;;25.46;52.83;101495.63;5084391;27;48122;-74
2022/07/31 10:09:56;;;;;;;;;15.67;14.33;;;;;25.54;52.42;101497.06;5081388;28;45278;-76
2022/07/31 10:12:22;;;;;;;;;12.67;12.67;;;;;25.58;52.31;101496.31;5081760;28;45422;-74
2022/07/31 10:14:51;;;;;;;;;13.00;13.00;;;;;25.60;52.49;101482.47;5081143;28;45275;-75
2022/07/31 10:17:24;;;;;;;;;13.00;12.33;;;;;25.74;52.04;101490.22;5088582;27;45353;-75
2022/07/31 10:19:52;;;;;;;;;13.00;13.00;;;;;25.84;51.90;101488.41;5090142;27;45362;-75
2022/07/31 10:22:20;;;;;;;;;11.00;11.00;;;;;25.93;52.55;101479.75;5081723;28;45507;-75
2022/07/31 10:24:47;;;;;;;;;16.00;15.33;;;;;26.10;52.19;101480.41;5081699;28;45781;-75
2022/07/31 10:27:18;;;;;;;;;13.67;13.67;;;;;26.21;51.55;101475.84;5080211;28;48140;-74
2022/07/31 10:29:44;;;;;;;;;14.67;13.67;;;;;26.30;50.75;101481.66;5081606;28;45437;-74
2022/07/31 10:32:09;;;;;;;;;12.00;12.00;;;;;26.35;50.52;101480.88;5087210;27;45417;-74
2022/07/31 10:34:35;;;;;;;;;14.00;14.00;;;;;26.41;50.23;101474.38;5080125;28;46169;-76
2022/07/31 10:37:14;;;;;;;;;14.00;14.00;;;;;26.55;49.93;101479.34;5084621;27;47181;-74
2022/07/31 10:40:05;;;;;;;;;12.00;12.00;;;;;26.65;49.80;101470.38;5079950;28;45630;-74
2022/07/31 10:43:00;;;;;;;;;16.67;14.67;;;;;26.76;48.35;101476.69;5081542;28;45409;-75
2022/07/31 10:45:28;;;;;;;;;13.67;13.00;;;;;26.89;48.20;101476.19;5026265;28;45409;-75
2022/07/31 10:47:59;;;;;;;;;14.00;14.00;;;;;27.02;49.47;101461.25;5080027;28;47506;-74
2022/07/31 10:50:27;;;;;;;;;13.33;13.33;;;;;27.25;49.04;101455.56;5080104;27;45327;-74
2022/07/31 10:52:52;;;;;;;;;17.00;17.00;;;;;27.44;48.82;101464.06;5081381;28;45349;-75
2022/07/31 10:55:24;;;;;;;;;13.67;13.67;;;;;27.59;46.88;101463.25;5095254;27;47106;-74
2022/07/31 10:57:50;;;;;;;;;15.33;15.33;;;;;27.69;47.60;101470.66;5081301;28;45532;-75
2022/07/31 11:00:19;;;;;;;;;13.00;13.00;;;;;27.87;46.05;101468.47;5071578;28;45834;-75
2022/07/31 11:02:45;;;;;;;;;17.67;14.33;;;;;27.94;46.47;101458.91;5064581;28;45446;-74
2022/07/31 11:05:22;;;;;;;;;13.67;13.67;;;;;28.08;45.35;101463.78;5061758;28;46641;-76
2022/07/31 11:08:06;;;;;;;;;11.00;11.00;;;;;28.23;46.26;101462.94;5073763;28;45486;-76
2022/07/31 11:10:32;;;;;;;;;15.33;14.33;;;;;28.40;45.41;101453.63;5072970;28;45430;-76
2022/07/31 11:13:12;;;;;;;;;11.33;11.33;;;;;28.60;44.79;101456.28;5061453;28;45474;-76
2022/07/31 11:15:37;;;;;;;;;12.33;12.33;;;;;28.72;44.26;101469.63;5073365;27;45485;-75
2022/07/31 11:18:17;;;;;;;;;13.67;13.67;;;;;28.92;44.48;101467.91;5072718;27;46899;-74